Aviation Digital Data Service (ADDS)

Output produced by METARs form (2004 UTC 15 October 2018)
found at http://www.aviationweather.gov/metar/data/
 
METAR text: SAWH 152000Z 23024G33KT 6000 +RA BKN012 BKN025 00/M00 Q0977
Conditions at: SAWH (USHUAIA (ARG-NAV, AR) observed 2000 UTC 15 October 2018
Temperature: 0.0°C (32°F)
Dewpoint: 0.0°C (32°F) [RH = 100%]
Pressure (altimeter): 28.85 inches Hg (977.0 mb)
Winds: from the SW (230 degrees) at 28 MPH (24 knots; 12.3 m/s)
gusting to 38 MPH (33 knots; 17.0 m/s)
Visibility: 4 miles ( 6 km)
Ceiling: 1200 feet AGL
Clouds: broken clouds at 1200 feet AGL
broken clouds at 2500 feet AGL
Weather: +RA  (heavy rain)

METAR text: SAWH 151900Z 23020G33KT 6000 +RA BKN012 BKN025 00/M01 Q0976
Conditions at: SAWH (USHUAIA (ARG-NAV, AR) observed 1900 UTC 15 October 2018
Temperature: 0.0°C (32°F)
Dewpoint: -1.0°C (30°F) [RH = 93%]
Pressure (altimeter): 28.82 inches Hg (976.0 mb)
Winds: from the SW (230 degrees) at 23 MPH (20 knots; 10.3 m/s)
gusting to 38 MPH (33 knots; 17.0 m/s)
Visibility: 4 miles ( 6 km)
Ceiling: 1200 feet AGL
Clouds: broken clouds at 1200 feet AGL
broken clouds at 2500 feet AGL
Weather: +RA  (heavy rain)

METAR text: SAWH 151840Z 23009KT 6000 RA BKN010 BKN025 00/M00 Q0977
Conditions at: SAWH (USHUAIA (ARG-NAV, AR) observed 1840 UTC 15 October 2018
Temperature: 0.0°C (32°F)
Dewpoint: 0.0°C (32°F) [RH = 100%]
Pressure (altimeter): 28.85 inches Hg (977.0 mb)
Winds: from the SW (230 degrees) at 10 MPH (9 knots; 4.6 m/s)
Visibility: 4 miles ( 6 km)
Ceiling: 1000 feet AGL
Clouds: broken clouds at 1000 feet AGL
broken clouds at 2500 feet AGL
Weather: RA  (moderate rain)

METAR text: SAWH 151800Z 23004KT 4000 SN BKN010 BKN025 00/M00 Q0977
Conditions at: SAWH (USHUAIA (ARG-NAV, AR) observed 1800 UTC 15 October 2018
Temperature: 0.0°C (32°F)
Dewpoint: 0.0°C (32°F) [RH = 100%]
Pressure (altimeter): 28.85 inches Hg (977.0 mb)
Winds: from the SW (230 degrees) at 5 MPH (4 knots; 2.1 m/s)
Visibility: 2.49 miles (4.01 km)
Ceiling: 1000 feet AGL
Clouds: broken clouds at 1000 feet AGL
broken clouds at 2500 feet AGL
Weather: SN  (moderate snow)

METAR text: SAWH 151700Z 23014KT 4000 SN BKN010 BKN025 00/M01 Q0977
Conditions at: SAWH (USHUAIA (ARG-NAV, AR) observed 1700 UTC 15 October 2018
Temperature: 0.0°C (32°F)
Dewpoint: -1.0°C (30°F) [RH = 93%]
Pressure (altimeter): 28.85 inches Hg (977.0 mb)
Winds: from the SW (230 degrees) at 16 MPH (14 knots; 7.2 m/s)
Visibility: 2.49 miles (4.01 km)
Ceiling: 1000 feet AGL
Clouds: broken clouds at 1000 feet AGL
broken clouds at 2500 feet AGL
Weather: SN  (moderate snow)

METAR text: SAWH 151620Z 23012KT 4000 SN BKN010 BKN025 04/03 Q0977
Conditions at: SAWH (USHUAIA (ARG-NAV, AR) observed 1620 UTC 15 October 2018
Temperature: 4.0°C (39°F)
Dewpoint: 3.0°C (37°F) [RH = 93%]
Pressure (altimeter): 28.85 inches Hg (977.0 mb)
Winds: from the SW (230 degrees) at 14 MPH (12 knots; 6.2 m/s)
Visibility: 2.49 miles (4.01 km)
Ceiling: 1000 feet AGL
Clouds: broken clouds at 1000 feet AGL
broken clouds at 2500 feet AGL
Weather: SN  (moderate snow)

METAR text: SAWH 151600Z 23009KT 6000 RA BKN010 BKN025 05/03 Q0977
Conditions at: SAWH (USHUAIA (ARG-NAV, AR) observed 1600 UTC 15 October 2018
Temperature: 5.0°C (41°F)
Dewpoint: 3.0°C (37°F) [RH = 87%]
Pressure (altimeter): 28.85 inches Hg (977.0 mb)
Winds: from the SW (230 degrees) at 10 MPH (9 knots; 4.6 m/s)
Visibility: 4 miles ( 6 km)
Ceiling: 1000 feet AGL
Clouds: broken clouds at 1000 feet AGL
broken clouds at 2500 feet AGL
Weather: RA  (moderate rain)

METAR text: SAWH 151500Z 23012KT 9999 RA OVC012 04/03 Q0974 REDZ
Conditions at: SAWH (USHUAIA (ARG-NAV, AR) observed 1500 UTC 15 October 2018
Temperature: 4.0°C (39°F)
Dewpoint: 3.0°C (37°F) [RH = 93%]
Pressure (altimeter): 28.76 inches Hg (974.0 mb)
Winds: from the SW (230 degrees) at 14 MPH (12 knots; 6.2 m/s)
Visibility: 6 or more miles (10+ km)
Ceiling: 1200 feet AGL
Clouds: overcast cloud deck at 1200 feet AGL
Weather: RA  (moderate rain)

METAR text: SAWH 151400Z 09005KT 9999 -DZ FEW010 SCT030 OVC040 05/01 Q0977
Conditions at: SAWH (USHUAIA (ARG-NAV, AR) observed 1400 UTC 15 October 2018
Temperature: 5.0°C (41°F)
Dewpoint: 1.0°C (34°F) [RH = 75%]
Pressure (altimeter): 28.85 inches Hg (977.0 mb)
Winds: from the E (90 degrees) at 6 MPH (5 knots; 2.6 m/s)
Visibility: 6 or more miles (10+ km)
Ceiling: 4000 feet AGL
Clouds: few clouds at 1000 feet AGL
scattered clouds at 3000 feet AGL
overcast cloud deck at 4000 feet AGL
Weather: -DZ  (light drizzle)

METAR text: SAWH 151335Z 07008KT 9999 -DZ FEW010 SCT025 OVC035 05/01 Q0977
Conditions at: SAWH (USHUAIA (ARG-NAV, AR) observed 1335 UTC 15 October 2018
Temperature: 5.0°C (41°F)
Dewpoint: 1.0°C (34°F) [RH = 75%]
Pressure (altimeter): 28.85 inches Hg (977.0 mb)
Winds: from the ENE (70 degrees) at 9 MPH (8 knots; 4.1 m/s)
Visibility: 6 or more miles (10+ km)
Ceiling: 3500 feet AGL
Clouds: few clouds at 1000 feet AGL
scattered clouds at 2500 feet AGL
overcast cloud deck at 3500 feet AGL
Weather: -DZ  (light drizzle)

METAR text: SAWH 151300Z 05008KT 9999 VCSH FEW010 SCT030 BKN040 05/01 Q0977
Conditions at: SAWH (USHUAIA (ARG-NAV, AR) observed 1300 UTC 15 October 2018
Temperature: 5.0°C (41°F)
Dewpoint: 1.0°C (34°F) [RH = 75%]
Pressure (altimeter): 28.85 inches Hg (977.0 mb)
Winds: from the NE (50 degrees) at 9 MPH (8 knots; 4.1 m/s)
Visibility: 6 or more miles (10+ km)
Ceiling: 4000 feet AGL
Clouds: few clouds at 1000 feet AGL
scattered clouds at 3000 feet AGL
broken clouds at 4000 feet AGL
Weather: VCSH  (showers in vicinity)

METAR text: SAWH 151200Z 02012KT 9999 VCSH FEW010 SCT025 BKN045 04/M01 Q0979
Conditions at: SAWH (USHUAIA (ARG-NAV, AR) observed 1200 UTC 15 October 2018
Temperature: 4.0°C (39°F)
Dewpoint: -1.0°C (30°F) [RH = 70%]
Pressure (altimeter): 28.91 inches Hg (979.0 mb)
Winds: from the NNE (20 degrees) at 14 MPH (12 knots; 6.2 m/s)
Visibility: 6 or more miles (10+ km)
Ceiling: 4500 feet AGL
Clouds: few clouds at 1000 feet AGL
scattered clouds at 2500 feet AGL
broken clouds at 4500 feet AGL
Weather: VCSH  (showers in vicinity)

METAR text: SAWH 151100Z 36017KT 9999 VCSH FEW010 SCT025 OVC045 04/01 Q0980
Conditions at: SAWH (USHUAIA (ARG-NAV, AR) observed 1100 UTC 15 October 2018
Temperature: 4.0°C (39°F)
Dewpoint: 1.0°C (34°F) [RH = 81%]
Pressure (altimeter): 28.94 inches Hg (980.0 mb)
Winds: from the N (360 degrees) at 20 MPH (17 knots; 8.7 m/s)
Visibility: 6 or more miles (10+ km)
Ceiling: 4500 feet AGL
Clouds: few clouds at 1000 feet AGL
scattered clouds at 2500 feet AGL
overcast cloud deck at 4500 feet AGL
Weather: VCSH  (showers in vicinity)

METAR text: SAWH 151000Z 02017KT 9999 VCSH FEW010 OVC045 04/M02 Q0981
Conditions at: SAWH (USHUAIA (ARG-NAV, AR) observed 1000 UTC 15 October 2018
Temperature: 4.0°C (39°F)
Dewpoint: -2.0°C (28°F) [RH = 65%]
Pressure (altimeter): 28.97 inches Hg (981.0 mb)
Winds: from the NNE (20 degrees) at 20 MPH (17 knots; 8.7 m/s)
Visibility: 6 or more miles (10+ km)
Ceiling: 4500 feet AGL
Clouds: few clouds at 1000 feet AGL
overcast cloud deck at 4500 feet AGL
Weather: VCSH  (showers in vicinity)

METAR text: SAWH 150900Z 02019G32KT 7000 -DZ BKN030 BKN060 04/M02 Q0982
Conditions at: SAWH (USHUAIA (ARG-NAV, AR) observed 0900 UTC 15 October 2018
Temperature: 4.0°C (39°F)
Dewpoint: -2.0°C (28°F) [RH = 65%]
Pressure (altimeter): 29.00 inches Hg (982.0 mb)
Winds: from the NNE (20 degrees) at 22 MPH (19 knots; 9.8 m/s)
gusting to 37 MPH (32 knots; 16.5 m/s)
Visibility: 4 miles ( 7 km)
Ceiling: 3000 feet AGL
Clouds: broken clouds at 3000 feet AGL
broken clouds at 6000 feet AGL
Weather: -DZ  (light drizzle)

METAR text: SAWH 150800Z 02014KT 7000 -DZ OVC025 04/M01 Q0983
Conditions at: SAWH (USHUAIA (ARG-NAV, AR) observed 0800 UTC 15 October 2018
Temperature: 4.0°C (39°F)
Dewpoint: -1.0°C (30°F) [RH = 70%]
Pressure (altimeter): 29.03 inches Hg (983.0 mb)
Winds: from the NNE (20 degrees) at 16 MPH (14 knots; 7.2 m/s)
Visibility: 4 miles ( 7 km)
Ceiling: 2500 feet AGL
Clouds: overcast cloud deck at 2500 feet AGL
Weather: -DZ  (light drizzle)

METAR text: SAWH 150700Z 02017KT 9999 SCT040 BKN065 04/M05 Q0984
Conditions at: SAWH (USHUAIA (ARG-NAV, AR) observed 0700 UTC 15 October 2018
Temperature: 4.0°C (39°F)
Dewpoint: -5.0°C (23°F) [RH = 52%]
Pressure (altimeter): 29.06 inches Hg (984.0 mb)
Winds: from the NNE (20 degrees) at 20 MPH (17 knots; 8.7 m/s)
Visibility: 6 or more miles (10+ km)
Ceiling: 6500 feet AGL
Clouds: scattered clouds at 4000 feet AGL
broken clouds at 6500 feet AGL
Weather: no significant weather observed at this time

METAR text: SAWH 150600Z 36014KT 9999 SCT040 BKN065 05/M05 Q0985
Conditions at: SAWH (USHUAIA (ARG-NAV, AR) observed 0600 UTC 15 October 2018
Temperature: 5.0°C (41°F)
Dewpoint: -5.0°C (23°F) [RH = 48%]
Pressure (altimeter): 29.08 inches Hg (985.0 mb)
Winds: from the N (360 degrees) at 16 MPH (14 knots; 7.2 m/s)
Visibility: 6 or more miles (10+ km)
Ceiling: 6500 feet AGL
Clouds: scattered clouds at 4000 feet AGL
broken clouds at 6500 feet AGL
Weather: no significant weather observed at this time

METAR text: SAWH 150500Z 36015KT 9999 SCT040 BKN065 06/M08 Q0987
Conditions at: SAWH (USHUAIA (ARG-NAV, AR) observed 0500 UTC 15 October 2018
Temperature: 6.0°C (43°F)
Dewpoint: -8.0°C (18°F) [RH = 36%]
Pressure (altimeter): 29.14 inches Hg (987.0 mb)
Winds: from the N (360 degrees) at 17 MPH (15 knots; 7.7 m/s)
Visibility: 6 or more miles (10+ km)
Ceiling: 6500 feet AGL
Clouds: scattered clouds at 4000 feet AGL
broken clouds at 6500 feet AGL
Weather: no significant weather observed at this time

METAR text: SAWH 150400Z 34016G28KT 9999 SCT040 BKN065 06/M09 Q0988
Conditions at: SAWH (USHUAIA (ARG-NAV, AR) observed 0400 UTC 15 October 2018
Temperature: 6.0°C (43°F)
Dewpoint: -9.0°C (16°F) [RH = 33%]
Pressure (altimeter): 29.17 inches Hg (988.0 mb)
Winds: from the NNW (340 degrees) at 18 MPH (16 knots; 8.2 m/s)
gusting to 32 MPH (28 knots; 14.4 m/s)
Visibility: 6 or more miles (10+ km)
Ceiling: 6500 feet AGL
Clouds: scattered clouds at 4000 feet AGL
broken clouds at 6500 feet AGL
Weather: no significant weather observed at this time

METAR text: SAWH 150300Z 36012KT 9999 SCT040 06/M06 Q0989
Conditions at: SAWH (USHUAIA (ARG-NAV, AR) observed 0300 UTC 15 October 2018
Temperature: 6.0°C (43°F)
Dewpoint: -6.0°C (21°F) [RH = 42%]
Pressure (altimeter): 29.20 inches Hg (989.0 mb)
Winds: from the N (360 degrees) at 14 MPH (12 knots; 6.2 m/s)
Visibility: 6 or more miles (10+ km)
Ceiling: at least 12,000 feet AGL
Clouds: scattered clouds at 4000 feet AGL
Weather: no significant weather observed at this time

METAR text: SAWH 150200Z 36012G29KT 9999 SCT040 07/M03 Q0990
Conditions at: SAWH (USHUAIA (ARG-NAV, AR) observed 0200 UTC 15 October 2018
Temperature: 7.0°C (45°F)
Dewpoint: -3.0°C (27°F) [RH = 49%]
Pressure (altimeter): 29.23 inches Hg (990.0 mb)
Winds: from the N (360 degrees) at 14 MPH (12 knots; 6.2 m/s)
gusting to 33 MPH (29 knots; 14.9 m/s)
Visibility: 6 or more miles (10+ km)
Ceiling: at least 12,000 feet AGL
Clouds: scattered clouds at 4000 feet AGL
Weather: no significant weather observed at this time

METAR text: SAWH 150100Z 36013KT 9999 SCT040 07/M05 Q0990
Conditions at: SAWH (USHUAIA (ARG-NAV, AR) observed 0100 UTC 15 October 2018
Temperature: 7.0°C (45°F)
Dewpoint: -5.0°C (23°F) [RH = 42%]
Pressure (altimeter): 29.23 inches Hg (990.0 mb)
Winds: from the N (360 degrees) at 15 MPH (13 knots; 6.7 m/s)
Visibility: 6 or more miles (10+ km)
Ceiling: at least 12,000 feet AGL
Clouds: scattered clouds at 4000 feet AGL
Weather: no significant weather observed at this time

METAR text: SAWH 150000Z 05013KT CAVOK 07/M04 Q0991
Conditions at: SAWH (USHUAIA (ARG-NAV, AR) observed 0000 UTC 15 October 2018
Temperature: 7.0°C (45°F)
Dewpoint: -4.0°C (25°F) [RH = 45%]
Pressure (altimeter): 29.26 inches Hg (991.0 mb)
Winds: from the NE (50 degrees) at 15 MPH (13 knots; 6.7 m/s)
Visibility: 6 or more miles (10+ km)
Ceiling: ceiling and visibility are OK
Clouds: unknown
Weather: no significant weather observed at this time

METAR text: SAWH 142300Z 09018KT CAVOK 06/00 Q0992
Conditions at: SAWH (USHUAIA (ARG-NAV, AR) observed 2300 UTC 14 October 2018
Temperature: 6.0°C (43°F)
Dewpoint: 0.0°C (32°F) [RH = 65%]
Pressure (altimeter): 29.29 inches Hg (992.0 mb)
Winds: from the E (90 degrees) at 21 MPH (18 knots; 9.3 m/s)
Visibility: 6 or more miles (10+ km)
Ceiling: ceiling and visibility are OK
Clouds: unknown
Weather: no significant weather observed at this time

METAR text: SAWH 142200Z 09012KT CAVOK 06/M02 Q0993
Conditions at: SAWH (USHUAIA (ARG-NAV, AR) observed 2200 UTC 14 October 2018
Temperature: 6.0°C (43°F)
Dewpoint: -2.0°C (28°F) [RH = 56%]
Pressure (altimeter): 29.32 inches Hg (993.0 mb)
Winds: from the E (90 degrees) at 14 MPH (12 knots; 6.2 m/s)
Visibility: 6 or more miles (10+ km)
Ceiling: ceiling and visibility are OK
Clouds: unknown
Weather: no significant weather observed at this time

METAR text: SAWH 142100Z 09008KT 9999 FEW040 SCT080 06/M03 Q0994
Conditions at: SAWH (USHUAIA (ARG-NAV, AR) observed 2100 UTC 14 October 2018
Temperature: 6.0°C (43°F)
Dewpoint: -3.0°C (27°F) [RH = 52%]
Pressure (altimeter): 29.35 inches Hg (994.0 mb)
Winds: from the E (90 degrees) at 9 MPH (8 knots; 4.1 m/s)
Visibility: 6 or more miles (10+ km)
Ceiling: at least 12,000 feet AGL
Clouds: few clouds at 4000 feet AGL
scattered clouds at 8000 feet AGL
Weather: no significant weather observed at this time

Forecast for: SAWH (USHUAIA (ARG-NAV, AR)
Text: TAF SAWH 151700Z 1518/1618 36017KT 9999 RA BKN010 BKN025 TX06/1518Z TN01/1612Z
Forecast period: 1800 to 2200 UTC 15 October 2018
Forecast type: FROM: standard forecast or significant change
Winds: from the N (360 degrees) at 20 MPH (17 knots; 8.7 m/s)
Visibility: 6 or more miles 10+ km)
Ceiling: 1000 feet AGL
Clouds: broken clouds at 1000 feet AGL
broken clouds at 2500 feet AGL
Weather: RA  (moderate rain)
Text: TEMPO 1518/1520 VRB05KT 6000 +RA
Forecast period: 1800 to 2000 UTC 15 October 2018
Forecast type: TEMPORARY: The following changes expected for less than half the time period
Winds: variable direction winds at 6 MPH (5 knots; 2.6 m/s)
Visibility: 4 miles (6 km)
Ceiling: unknown
Clouds: missing
Weather: +RA  (heavy rain)
Text: BECMG 1522/1606 25015KT 9999 NSW SCT030 BKN080
Forecast period: 2200 UTC 15 October 2018 to 0600 UTC 16 October 2018
Forecast type: BECOMING: Conditions expected to become as follows by 0600 UTC 16 October 2018
Winds: from the WSW (250 degrees) at 17 MPH (15 knots; 7.7 m/s)
Visibility: 6 or more miles 10+ km)
Ceiling: 8000 feet AGL
Clouds: scattered clouds at 3000 feet AGL
broken clouds at 8000 feet AGL
Weather: NSW  (no significant weather)
Text: BECMG 1606/1612 27015KT -RA BKN030 BKN050
Forecast period: 0600 to 1800 UTC 16 October 2018
Forecast type: BECOMING: Conditions expected to become as follows by 1200 UTC 16 October 2018
Winds: from the W (270 degrees) at 17 MPH (15 knots; 7.7 m/s)
Visibility: 6 or more miles 10+ km)
Ceiling: 3000 feet AGL
Clouds: broken clouds at 3000 feet AGL
broken clouds at 5000 feet AGL
Weather: -RA  (light rain)